Time;durP1;ratioP1;P1;durP2;ratioP2;P2;SDS_P1;SDS_P2;PMS_P1;PMS_P2;Temp;Humidity;BMP_temperature;BMP_pressure;BME280_temperature;BME280_humidity;BME280_pressure;Samples;Min_cycle;Max_cycle;Signal;HPM_P1;HPM_P2
2022/01/24 00:00:23;;;;;;;8.38;5.70;;;;;;;;;;5029522;28;20018;-59
2022/01/24 00:02:49;;;;;;;9.05;6.40;;;;;;;;;;5026129;28;20029;-59
2022/01/24 00:05:17;;;;;;;10.52;6.32;;;;;;;;;;5026622;28;20021;-59
2022/01/24 00:07:43;;;;;;;8.93;6.32;;;;;;;;;;5028818;28;20021;-59
2022/01/24 00:10:15;;;;;;;9.57;6.45;;;;;;;;;;5030781;28;20477;-60
2022/01/24 00:17:49;;;;;;;8.07;6.13;;;;;;;;;;5027052;28;20047;-59
2022/01/24 00:28:28;;;;;;;10.38;6.28;;;;;;;;;;5029126;28;20096;-59
2022/01/24 00:30:55;;;;;;;10.95;6.65;;;;;;;;;;5028209;28;20119;-60
2022/01/24 00:33:21;;;;;;;8.20;5.97;;;;;;;;;;5027210;28;20071;-59
2022/01/24 00:35:50;;;;;;;10.40;6.57;;;;;;;;;;5030566;28;20034;-59
2022/01/24 00:38:16;;;;;;;8.52;6.32;;;;;;;;;;5026550;28;20033;-59
2022/01/24 00:40:45;;;;;;;7.53;5.88;;;;;;;;;;5026519;28;20056;-59
2022/01/24 00:43:23;;;;;;;9.00;6.35;;;;;;;;;;5030101;28;20780;-59
2022/01/24 00:46:03;;;;;;;8.20;6.18;;;;;;;;;;5025186;28;20025;-60
2022/01/24 00:54:00;;;;;;;7.53;5.72;;;;;;;;;;5025174;28;20095;-58
2022/01/24 00:56:26;;;;;;;8.18;5.70;;;;;;;;;;5024728;28;20087;-59
2022/01/24 00:58:52;;;;;;;10.25;5.63;;;;;;;;;;5026158;28;20751;-58
2022/01/24 01:01:18;;;;;;;13.60;6.20;;;;;;;;;;5029360;28;20059;-59
2022/01/24 01:03:44;;;;;;;8.57;5.60;;;;;;;;;;5027962;28;20042;-59
2022/01/24 01:06:11;;;;;;;7.78;5.32;;;;;;;;;;5027533;28;20053;-60
2022/01/24 01:19:50;;;;;;;9.07;5.60;;;;;;;;;;5027539;28;20910;-59
2022/01/24 01:22:16;;;;;;;8.38;5.72;;;;;;;;;;5027609;28;20028;-60
2022/01/24 01:24:49;;;;;;;8.18;5.53;;;;;;;;;;5027456;28;20035;-59
2022/01/24 01:27:20;;;;;;;8.23;5.47;;;;;;;;;;5029257;28;20414;-60
2022/01/24 01:29:58;;;;;;;6.80;5.00;;;;;;;;;;5025993;28;20168;-59
2022/01/24 01:32:48;;;;;;;9.27;5.07;;;;;;;;;;5029471;28;20116;-59
2022/01/24 01:40:41;;;;;;;7.70;4.85;;;;;;;;;;5031219;28;20028;-59
2022/01/24 01:54:15;;;;;;;8.10;5.10;;;;;;;;;;5025804;28;20103;-59
2022/01/24 01:56:42;;;;;;;7.13;5.30;;;;;;;;;;5026395;28;20037;-60
2022/01/24 01:59:08;;;;;;;7.80;5.22;;;;;;;;;;5029170;28;20044;-59
2022/01/24 02:01:34;;;;;;;7.10;5.13;;;;;;;;;;5029510;28;20029;-59
2022/01/24 02:04:03;;;;;;;7.78;5.20;;;;;;;;;;5029865;28;20022;-58
2022/01/24 02:06:29;;;;;;;7.88;5.30;;;;;;;;;;5029670;28;20469;-59
2022/01/24 02:08:59;;;;;;;9.05;5.85;;;;;;;;;;5026200;28;20104;-59
2022/01/24 02:11:25;;;;;;;8.43;5.18;;;;;;;;;;5029885;28;20465;-59
2022/01/24 02:13:51;;;;;;;8.98;5.40;;;;;;;;;;5029484;28;20032;-59
2022/01/24 02:19:04;;;;;;;10.27;6.22;;;;;;;;;;5027520;28;20044;-59
2022/01/24 02:21:58;;;;;;;10.95;6.00;;;;;;;;;;5029738;28;20477;-60
2022/01/24 02:24:25;;;;;;;8.73;6.18;;;;;;;;;;5026783;28;20033;-60
2022/01/24 02:26:55;;;;;;;7.93;5.85;;;;;;;;;;5028005;28;20389;-59
2022/01/24 02:31:55;;;;;;;9.23;5.55;;;;;;;;;;5026754;28;21581;-58
2022/01/24 02:34:21;;;;;;;9.65;5.93;;;;;;;;;;5031466;28;20048;-59
2022/01/24 02:36:47;;;;;;;8.48;6.00;;;;;;;;;;5025728;28;20036;-60
2022/01/24 02:49:56;;;;;;;9.38;7.05;;;;;;;;;;5029610;28;20444;-59
2022/01/24 02:52:25;;;;;;;8.65;6.65;;;;;;;;;;5025499;28;20059;-59
2022/01/24 02:54:51;;;;;;;9.73;6.68;;;;;;;;;;5028150;28;20029;-60
2022/01/24 02:57:19;;;;;;;9.65;6.78;;;;;;;;;;5029650;28;20069;-59
2022/01/24 02:59:45;;;;;;;9.73;7.18;;;;;;;;;;5033147;28;20467;-58
2022/01/24 03:02:11;;;;;;;10.38;7.55;;;;;;;;;;5029016;28;20057;-58
2022/01/24 03:04:37;;;;;;;9.75;7.47;;;;;;;;;;5032262;28;20033;-59
2022/01/24 03:07:03;;;;;;;12.48;8.68;;;;;;;;;;5031114;28;21167;-59
2022/01/24 03:09:29;;;;;;;9.77;8.30;;;;;;;;;;5031264;28;20508;-58
2022/01/24 03:14:24;;;;;;;11.35;8.40;;;;;;;;;;5030126;28;20039;-58
2022/01/24 03:16:50;;;;;;;9.88;7.80;;;;;;;;;;5029073;28;20040;-60
2022/01/24 03:19:17;;;;;;;11.60;8.98;;;;;;;;;;5031564;28;20547;-59
2022/01/24 03:21:43;;;;;;;11.30;8.88;;;;;;;;;;5029701;28;20036;-59
2022/01/24 03:24:09;;;;;;;9.20;8.25;;;;;;;;;;5032003;28;20075;-59
2022/01/24 03:26:35;;;;;;;10.18;8.73;;;;;;;;;;5032160;28;20240;-60
2022/01/24 03:29:01;;;;;;;10.60;8.55;;;;;;;;;;5030465;28;20430;-60
2022/01/24 03:31:27;;;;;;;10.05;8.00;;;;;;;;;;5030480;28;20069;-59
2022/01/24 03:33:53;;;;;;;11.20;7.85;;;;;;;;;;5031511;28;20139;-60
2022/01/24 03:36:19;;;;;;;8.85;7.60;;;;;;;;;;5031889;28;20059;-60
2022/01/24 03:38:45;;;;;;;8.82;7.50;;;;;;;;;;5029698;28;20595;-59
2022/01/24 03:41:11;;;;;;;8.93;6.93;;;;;;;;;;5029854;28;20026;-59
2022/01/24 03:43:37;;;;;;;10.00;7.57;;;;;;;;;;5030984;28;20125;-59
2022/01/24 03:48:51;;;;;;;8.73;7.18;;;;;;;;;;5030847;28;20045;-60
2022/01/24 03:51:17;;;;;;;7.97;6.93;;;;;;;;;;5030869;28;20476;-59
2022/01/24 03:53:44;;;;;;;8.95;7.40;;;;;;;;;;5027974;28;20033;-59
2022/01/24 03:56:10;;;;;;;9.52;7.82;;;;;;;;;;5030703;28;20037;-59
2022/01/24 03:58:36;;;;;;;9.13;7.40;;;;;;;;;;5030743;28;20049;-58
2022/01/24 04:01:05;;;;;;;9.35;6.95;;;;;;;;;;5033919;28;20497;-59
2022/01/24 04:03:31;;;;;;;8.32;7.40;;;;;;;;;;5028052;28;20025;-59
2022/01/24 04:05:57;;;;;;;9.38;7.10;;;;;;;;;;5030872;28;20029;-60
2022/01/24 04:08:23;;;;;;;8.57;6.63;;;;;;;;;;5028513;28;20175;-58
2022/01/24 04:10:53;;;;;;;9.07;6.75;;;;;;;;;;5030365;28;20469;-59
2022/01/24 04:13:30;;;;;;;9.05;7.15;;;;;;;;;;5027401;28;20461;-59
2022/01/24 04:16:22;;;;;;;8.77;6.68;;;;;;;;;;5030950;28;20342;-60
2022/01/24 04:21:28;;;;;;;8.95;6.10;;;;;;;;;;5032147;28;20037;-60
2022/01/24 04:24:01;;;;;;;7.78;6.03;;;;;;;;;;5025962;28;20096;-60
2022/01/24 04:26:28;;;;;;;7.35;6.60;;;;;;;;;;5026847;28;20026;-59
2022/01/24 04:28:54;;;;;;;8.05;6.68;;;;;;;;;;5030559;28;20038;-59
2022/01/24 04:31:20;;;;;;;7.20;6.43;;;;;;;;;;5031848;28;20151;-59
2022/01/24 04:33:46;;;;;;;8.00;6.50;;;;;;;;;;5031739;28;20465;-59
2022/01/24 04:36:13;;;;;;;7.47;6.70;;;;;;;;;;5028452;28;20040;-59
2022/01/24 04:38:39;;;;;;;7.05;6.35;;;;;;;;;;5027362;28;20060;-58
2022/01/24 04:41:14;;;;;;;7.97;6.68;;;;;;;;;;5030834;28;20427;-59
2022/01/24 04:54:44;;;;;;;8.23;7.00;;;;;;;;;;5029935;28;20495;-59
2022/01/24 04:57:11;;;;;;;8.80;6.72;;;;;;;;;;5031185;28;20025;-59
2022/01/24 04:59:38;;;;;;;8.52;7.13;;;;;;;;;;5029206;28;20048;-59
2022/01/24 05:02:04;;;;;;;8.52;6.93;;;;;;;;;;5032236;28;20021;-59
2022/01/24 05:04:30;;;;;;;7.45;6.50;;;;;;;;;;5027839;28;20030;-59
2022/01/24 05:06:56;;;;;;;9.13;7.07;;;;;;;;;;5027604;28;20021;-59
2022/01/24 05:09:23;;;;;;;8.70;7.32;;;;;;;;;;5029237;28;20601;-60
2022/01/24 05:11:58;;;;;;;8.40;7.05;;;;;;;;;;5031449;28;20060;-59
2022/01/24 05:25:22;;;;;;;7.93;7.13;;;;;;;;;;5027907;28;20040;-60
2022/01/24 05:27:48;;;;;;;8.45;7.60;;;;;;;;;;5030160;28;20021;-59
2022/01/24 05:30:15;;;;;;;8.57;7.20;;;;;;;;;;5030007;28;20029;-59
2022/01/24 05:32:41;;;;;;;7.65;6.90;;;;;;;;;;5030213;28;20456;-58
2022/01/24 05:35:07;;;;;;;9.65;7.20;;;;;;;;;;5032608;28;20032;-58
2022/01/24 05:37:33;;;;;;;7.70;6.90;;;;;;;;;;5030420;28;20191;-60
2022/01/24 05:39:59;;;;;;;8.02;7.22;;;;;;;;;;5028863;28;20349;-59
2022/01/24 05:42:25;;;;;;;7.90;7.10;;;;;;;;;;5028196;28;20584;-59
2022/01/24 05:44:52;;;;;;;8.43;7.53;;;;;;;;;;5027374;28;20075;-59
2022/01/24 05:47:19;;;;;;;10.52;6.72;;;;;;;;;;5028470;28;20038;-59
2022/01/24 05:49:45;;;;;;;7.95;7.15;;;;;;;;;;5030173;28;20033;-59
2022/01/24 05:52:12;;;;;;;7.88;7.07;;;;;;;;;;5027027;28;20094;-59
2022/01/24 05:54:38;;;;;;;8.73;7.65;;;;;;;;;;5029973;28;20107;-60
2022/01/24 05:57:04;;;;;;;11.43;8.02;;;;;;;;;;5025837;28;20060;-59
2022/01/24 05:59:31;;;;;;;9.45;8.02;;;;;;;;;;5027139;28;20049;-59
2022/01/24 06:01:57;;;;;;;8.27;7.32;;;;;;;;;;5026874;28;20383;-58
2022/01/24 06:04:23;;;;;;;8.57;7.15;;;;;;;;;;5025267;28;20033;-58
2022/01/24 06:06:49;;;;;;;8.20;7.05;;;;;;;;;;5024064;28;20573;-59
2022/01/24 06:09:15;;;;;;;8.93;7.97;;;;;;;;;;5027973;28;20033;-60
2022/01/24 06:11:42;;;;;;;10.80;8.30;;;;;;;;;;5027187;28;20038;-59
2022/01/24 06:14:08;;;;;;;10.10;7.97;;;;;;;;;;5027748;28;20052;-59
2022/01/24 06:16:34;;;;;;;10.07;8.52;;;;;;;;;;5028654;28;20079;-59
2022/01/24 06:19:00;;;;;;;10.60;8.20;;;;;;;;;;5026324;28;20032;-58
2022/01/24 06:21:26;;;;;;;9.50;7.80;;;;;;;;;;5027741;28;20044;-58
2022/01/24 06:23:52;;;;;;;11.05;8.63;;;;;;;;;;5027530;28;20613;-60
2022/01/24 06:26:18;;;;;;;10.52;8.88;;;;;;;;;;5030632;28;20033;-59
2022/01/24 06:28:44;;;;;;;9.35;8.45;;;;;;;;;;5025442;28;20464;-59
2022/01/24 06:31:10;;;;;;;9.52;8.63;;;;;;;;;;5025636;28;20033;-59
2022/01/24 06:33:36;;;;;;;9.88;8.82;;;;;;;;;;5032051;28;20097;-59
2022/01/24 06:36:02;;;;;;;10.52;9.43;;;;;;;;;;5031377;28;20499;-58
2022/01/24 06:38:29;;;;;;;11.90;10.65;;;;;;;;;;5031898;28;20029;-59
2022/01/24 06:40:55;;;;;;;12.98;11.10;;;;;;;;;;5031493;28;20473;-59
2022/01/24 06:43:21;;;;;;;14.25;12.07;;;;;;;;;;5031817;28;20025;-59
2022/01/24 06:45:47;;;;;;;16.05;11.80;;;;;;;;;;5029631;28;20028;-59
2022/01/24 06:48:13;;;;;;;11.55;10.35;;;;;;;;;;5029038;28;20049;-60
2022/01/24 06:50:39;;;;;;;12.88;10.30;;;;;;;;;;5030715;28;20393;-59
2022/01/24 06:53:05;;;;;;;11.63;9.90;;;;;;;;;;5030282;28;20021;-59
2022/01/24 06:55:31;;;;;;;11.13;9.50;;;;;;;;;;5033440;28;20948;-59
2022/01/24 06:57:57;;;;;;;10.85;9.73;;;;;;;;;;5031111;28;20162;-59
2022/01/24 07:00:26;;;;;;;12.93;9.00;;;;;;;;;;5029019;28;20036;-59
2022/01/24 07:02:55;;;;;;;9.85;8.35;;;;;;;;;;5032738;28;20025;-59
2022/01/24 07:05:21;;;;;;;11.98;8.90;;;;;;;;;;5032623;28;20082;-60
2022/01/24 07:07:47;;;;;;;10.52;9.52;;;;;;;;;;5029890;28;20025;-59
2022/01/24 07:10:15;;;;;;;10.18;9.18;;;;;;;;;;5030404;28;20815;-59
2022/01/24 07:12:41;;;;;;;10.38;9.20;;;;;;;;;;5032056;28;20021;-59
2022/01/24 07:15:11;;;;;;;10.57;9.48;;;;;;;;;;5031334;28;20111;-59
2022/01/24 07:20:22;;;;;;;11.60;9.27;;;;;;;;;;5028677;28;20048;-60
2022/01/24 07:22:48;;;;;;;13.63;9.82;;;;;;;;;;5029962;28;20624;-59
2022/01/24 07:25:14;;;;;;;10.05;9.05;;;;;;;;;;5031954;28;20034;-58
2022/01/24 07:27:40;;;;;;;9.70;8.60;;;;;;;;;;5032563;28;20025;-60
2022/01/24 07:30:06;;;;;;;9.05;8.15;;;;;;;;;;5030233;28;20815;-59
2022/01/24 07:32:32;;;;;;;10.98;8.38;;;;;;;;;;5029210;28;20608;-59
2022/01/24 07:34:59;;;;;;;10.40;8.40;;;;;;;;;;5032324;28;20037;-60
2022/01/24 07:37:25;;;;;;;10.13;8.20;;;;;;;;;;5028936;28;20444;-60
2022/01/24 07:39:55;;;;;;;8.77;7.88;;;;;;;;;;5021007;28;20621;-59
2022/01/24 07:42:52;;;;;;;8.63;7.72;;;;;;;;;;5032846;28;20032;-61
2022/01/24 07:45:13;;;;;;;11.02;7.70;;;;;;;;;;5029418;28;20091;-60
2022/01/24 07:47:39;;;;;;;8.57;7.60;;;;;;;;;;5031558;28;20033;-61
2022/01/24 07:50:05;;;;;;;10.77;7.35;;;;;;;;;;5029496;28;20125;-61
2022/01/24 07:52:31;;;;;;;7.88;6.97;;;;;;;;;;5028354;28;20039;-60
2022/01/24 07:54:57;;;;;;;10.40;7.32;;;;;;;;;;5028045;28;20029;-60
2022/01/24 07:57:23;;;;;;;9.45;7.10;;;;;;;;;;5031681;28;20037;-61
2022/01/24 07:59:49;;;;;;;9.40;7.03;;;;;;;;;;5029293;28;20136;-61
2022/01/24 08:02:15;;;;;;;8.63;6.90;;;;;;;;;;5032579;28;20028;-60
2022/01/24 08:04:41;;;;;;;14.45;8.68;;;;;;;;;;5030173;28;20029;-60
2022/01/24 08:07:06;;;;;;;11.05;8.27;;;;;;;;;;5034386;28;20049;-60
2022/01/24 08:09:33;;;;;;;12.70;8.90;;;;;;;;;;5030731;28;20036;-60
2022/01/24 08:11:59;;;;;;;11.25;8.63;;;;;;;;;;5029824;28;20427;-60
2022/01/24 08:14:27;;;;;;;10.65;7.60;;;;;;;;;;5028446;28;20025;-60
2022/01/24 08:16:53;;;;;;;9.10;7.80;;;;;;;;;;5028813;28;20100;-60
2022/01/24 08:19:19;;;;;;;8.38;6.80;;;;;;;;;;5029970;28;20468;-60
2022/01/24 08:21:45;;;;;;;11.07;7.65;;;;;;;;;;5030834;28;20090;-60
2022/01/24 08:24:11;;;;;;;9.30;7.38;;;;;;;;;;5031332;28;20036;-60
2022/01/24 08:26:37;;;;;;;7.13;6.13;;;;;;;;;;5031076;28;20029;-61
2022/01/24 08:29:04;;;;;;;11.18;6.47;;;;;;;;;;5030329;28;20045;-60
2022/01/24 08:31:30;;;;;;;9.60;6.18;;;;;;;;;;5030762;28;20155;-60
2022/01/24 08:33:56;;;;;;;8.07;6.38;;;;;;;;;;5029558;28;20033;-60
2022/01/24 08:36:22;;;;;;;8.38;6.43;;;;;;;;;;5028672;28;20039;-61
2022/01/24 08:38:50;;;;;;;9.27;6.40;;;;;;;;;;5024402;28;20648;-60
2022/01/24 08:41:25;;;;;;;21.15;15.13;;;;;;;;;;5029460;28;20043;-61
2022/01/24 08:43:59;;;;;;;8.27;6.30;;;;;;;;;;5028922;28;20018;-60
2022/01/24 08:46:24;;;;;;;7.13;6.28;;;;;;;;;;5028294;28;20033;-60
2022/01/24 08:48:51;;;;;;;8.25;6.35;;;;;;;;;;5027258;28;20049;-60
2022/01/24 08:51:17;;;;;;;6.82;5.65;;;;;;;;;;5027695;28;20596;-60
2022/01/24 08:53:43;;;;;;;9.23;5.97;;;;;;;;;;5026535;28;20042;-60
2022/01/24 08:56:11;;;;;;;8.88;6.22;;;;;;;;;;5025084;28;20029;-60
2022/01/24 08:58:37;;;;;;;9.45;6.70;;;;;;;;;;5025356;28;20033;-60
2022/01/24 09:01:03;;;;;;;8.48;7.25;;;;;;;;;;5029095;28;20638;-60
2022/01/24 09:03:35;;;;;;;14.00;6.80;;;;;;;;;;5030212;28;20041;-60
2022/01/24 09:06:01;;;;;;;9.43;6.95;;;;;;;;;;5029239;28;20029;-60
2022/01/24 09:08:30;;;;;;;9.25;6.72;;;;;;;;;;5027717;28;20045;-60
2022/01/24 09:10:56;;;;;;;7.60;6.38;;;;;;;;;;5027869;28;20025;-60
2022/01/24 09:13:22;;;;;;;9.38;7.13;;;;;;;;;;5028914;28;20044;-60
2022/01/24 09:15:48;;;;;;;10.43;7.28;;;;;;;;;;5029844;28;20048;-60
2022/01/24 09:18:15;;;;;;;9.13;7.15;;;;;;;;;;5029975;28;20033;-61
2022/01/24 09:20:41;;;;;;;8.95;6.60;;;;;;;;;;5027516;28;20026;-60
2022/01/24 09:23:09;;;;;;;9.32;6.80;;;;;;;;;;5024311;28;20029;-60
2022/01/24 09:25:35;;;;;;;9.85;6.53;;;;;;;;;;5028439;28;20063;-60
2022/01/24 09:28:01;;;;;;;7.53;6.20;;;;;;;;;;5027326;28;20107;-60
2022/01/24 09:30:27;;;;;;;8.13;6.25;;;;;;;;;;5027935;28;20041;-60
2022/01/24 09:32:53;;;;;;;8.35;6.45;;;;;;;;;;5028696;28;20032;-61
2022/01/24 09:35:20;;;;;;;9.77;6.85;;;;;;;;;;5029035;28;20103;-61
2022/01/24 09:37:47;;;;;;;8.50;6.57;;;;;;;;;;5027893;28;20163;-60
2022/01/24 09:40:15;;;;;;;9.68;7.07;;;;;;;;;;5027259;28;20041;-60
2022/01/24 09:42:41;;;;;;;8.45;5.97;;;;;;;;;;5026936;28;20075;-60
2022/01/24 09:45:07;;;;;;;11.90;8.13;;;;;;;;;;5028704;28;20021;-58
2022/01/24 09:47:34;;;;;;;9.85;7.10;;;;;;;;;;5026134;28;20029;-61
2022/01/24 09:50:00;;;;;;;7.45;6.25;;;;;;;;;;5029190;28;20033;-60
2022/01/24 09:52:26;;;;;;;9.02;6.43;;;;;;;;;;5029320;28;20472;-60
2022/01/24 09:54:52;;;;;;;9.70;6.75;;;;;;;;;;5024327;28;20485;-60
2022/01/24 09:57:18;;;;;;;8.57;7.28;;;;;;;;;;5026073;28;20075;-60
2022/01/24 09:59:44;;;;;;;8.13;6.50;;;;;;;;;;5028675;28;20117;-60
2022/01/24 10:02:10;;;;;;;9.80;6.35;;;;;;;;;;5026753;28;20022;-60
2022/01/24 10:04:36;;;;;;;10.98;7.15;;;;;;;;;;5025381;28;20029;-61
2022/01/24 10:07:07;;;;;;;23.63;15.48;;;;;;;;;;5029827;28;20363;-61
2022/01/24 10:09:33;;;;;;;8.27;7.05;;;;;;;;;;5032266;28;20029;-60
2022/01/24 10:12:12;;;;;;;10.00;7.30;;;;;;;;;;5033123;28;20065;-60
2022/01/24 10:17:26;;;;;;;9.02;6.82;;;;;;;;;;5032165;28;20055;-60
2022/01/24 10:19:52;;;;;;;10.70;7.60;;;;;;;;;;5029945;28;20465;-60
2022/01/24 10:22:21;;;;;;;8.52;6.93;;;;;;;;;;5032883;28;20059;-60
2022/01/24 10:24:56;;;;;;;8.18;6.72;;;;;;;;;;5032001;28;20052;-60
2022/01/24 10:27:24;;;;;;;8.90;6.18;;;;;;;;;;5029537;28;21334;-60
2022/01/24 10:29:51;;;;;;;6.95;6.20;;;;;;;;;;5023332;28;20076;-61
2022/01/24 10:32:27;;;;;;;8.90;6.70;;;;;;;;;;5030984;28;20632;-60
2022/01/24 10:34:53;;;;;;;9.10;6.70;;;;;;;;;;5030138;28;21730;-60
2022/01/24 10:37:23;;;;;;;9.20;6.78;;;;;;;;;;5032912;28;20064;-60
2022/01/24 10:39:59;;;;;;;7.57;6.40;;;;;;;;;;5028707;28;20388;-60
2022/01/24 10:44:56;;;;;;;11.27;7.20;;;;;;;;;;5032970;28;20029;-61
2022/01/24 10:47:23;;;;;;;10.68;7.65;;;;;;;;;;5032400;28;20029;-60
2022/01/24 10:49:49;;;;;;;10.10;7.25;;;;;;;;;;5030941;28;20048;-61
2022/01/24 10:52:24;;;;;;;11.90;7.55;;;;;;;;;;5031567;28;20032;-60
2022/01/24 10:54:53;;;;;;;9.82;8.20;;;;;;;;;;5031778;28;20033;-60
2022/01/24 10:57:27;;;;;;;9.55;8.00;;;;;;;;;;5032864;28;20375;-61
2022/01/24 11:00:10;;;;;;;10.77;7.75;;;;;;;;;;5022597;28;20128;-60
2022/01/24 11:02:40;;;;;;;11.75;8.35;;;;;;;;;;5032025;28;20470;-60
2022/01/24 11:05:17;;;;;;;9.18;7.85;;;;;;;;;;5031267;28;20708;-60
2022/01/24 11:07:50;;;;;;;9.25;8.13;;;;;;;;;;5031459;28;20025;-60
2022/01/24 11:10:16;;;;;;;10.05;8.48;;;;;;;;;;5031877;28;20683;-61
2022/01/24 11:12:42;;;;;;;10.05;8.18;;;;;;;;;;5028927;28;20033;-60
2022/01/24 11:15:11;;;;;;;11.20;7.70;;;;;;;;;;5031642;28;20445;-60
2022/01/24 11:17:37;;;;;;;11.70;7.38;;;;;;;;;;5028381;28;20705;-61
2022/01/24 11:20:04;;;;;;;8.90;6.85;;;;;;;;;;5031050;28;20033;-61
2022/01/24 11:22:34;;;;;;;11.18;8.52;;;;;;;;;;5030388;28;20064;-61
2022/01/24 11:25:06;;;;;;;10.57;8.07;;;;;;;;;;5030185;28;20456;-60
2022/01/24 11:27:33;;;;;;;12.07;8.77;;;;;;;;;;5028209;28;20674;-60
2022/01/24 11:30:12;;;;;;;10.70;7.95;;;;;;;;;;5032421;28;20523;-61
2022/01/24 11:32:40;;;;;;;10.02;8.18;;;;;;;;;;5032555;28;20036;-60
2022/01/24 11:35:07;;;;;;;10.93;8.27;;;;;;;;;;5032125;28;20032;-60
2022/01/24 11:37:39;;;;;;;12.85;9.32;;;;;;;;;;5028992;28;20083;-61
2022/01/24 11:40:16;;;;;;;11.02;8.63;;;;;;;;;;5032249;28;20056;-60
2022/01/24 11:42:46;;;;;;;9.80;8.35;;;;;;;;;;5032153;28;20029;-60
2022/01/24 11:45:14;;;;;;;10.50;7.70;;;;;;;;;;5027921;28;20049;-60
2022/01/24 11:47:45;;;;;;;12.05;8.60;;;;;;;;;;5032205;28;20615;-60
2022/01/24 11:50:26;;;;;;;13.38;8.93;;;;;;;;;;5030253;28;20053;-60
2022/01/24 11:52:55;;;;;;;9.57;8.50;;;;;;;;;;5029009;28;20557;-61
2022/01/24 11:55:34;;;;;;;10.27;8.70;;;;;;;;;;5024319;28;20041;-60
2022/01/24 11:58:07;;;;;;;12.68;8.77;;;;;;;;;;5025605;28;20094;-60
2022/01/24 12:00:44;;;;;;;12.23;9.52;;;;;;;;;;5028945;28;20256;-61
2022/01/24 12:03:23;;;;;;;9.77;8.40;;;;;;;;;;5029829;28;20385;-60
2022/01/24 12:05:53;;;;;;;11.10;9.40;;;;;;;;;;5032559;28;20045;-60
2022/01/24 12:08:38;;;;;;;10.35;9.00;;;;;;;;;;5028149;28;20443;-61
2022/01/24 12:11:27;;;;;;;13.00;10.00;;;;;;;;;;5028923;28;20024;-61
2022/01/24 12:14:00;;;;;;;13.50;10.20;;;;;;;;;;5031105;28;20065;-61
2022/01/24 12:16:34;;;;;;;11.35;10.15;;;;;;;;;;5032037;28;20461;-60
2022/01/24 12:19:01;;;;;;;12.75;10.13;;;;;;;;;;5026720;28;20038;-60
2022/01/24 12:21:28;;;;;;;15.10;11.50;;;;;;;;;;5028013;28;20128;-60
2022/01/24 12:23:55;;;;;;;12.13;10.02;;;;;;;;;;5030941;28;20117;-60
2022/01/24 12:26:22;;;;;;;14.57;11.38;;;;;;;;;;5029666;28;20563;-61
2022/01/24 12:28:49;;;;;;;14.80;11.77;;;;;;;;;;5027863;28;20109;-60
2022/01/24 12:31:20;;;;;;;12.65;9.52;;;;;;;;;;5029641;28;20017;-60
2022/01/24 12:33:55;;;;;;;11.45;9.43;;;;;;;;;;5030073;28;20029;-60
2022/01/24 12:36:46;;;;;;;11.05;9.20;;;;;;;;;;5030470;28;20039;-60
2022/01/24 12:39:14;;;;;;;11.20;8.93;;;;;;;;;;5030382;28;20040;-60
2022/01/24 12:41:46;;;;;;;10.43;8.38;;;;;;;;;;5028463;28;20028;-60
2022/01/24 12:46:57;;;;;;;13.20;9.50;;;;;;;;;;5027668;28;20434;-60
2022/01/24 12:49:24;;;;;;;11.50;9.45;;;;;;;;;;5030918;28;20041;-60
2022/01/24 12:51:50;;;;;;;10.75;9.15;;;;;;;;;;5026659;28;20036;-60
2022/01/24 12:54:16;;;;;;;11.57;8.88;;;;;;;;;;5027731;28;20038;-60
2022/01/24 12:56:42;;;;;;;13.23;8.73;;;;;;;;;;5024743;28;20036;-60
2022/01/24 12:59:08;;;;;;;10.52;8.50;;;;;;;;;;5030289;28;20025;-60
2022/01/24 13:01:37;;;;;;;13.80;10.88;;;;;;;;;;5029721;28;20036;-60
2022/01/24 13:04:08;;;;;;;17.15;10.13;;;;;;;;;;5031622;28;20024;-61
2022/01/24 13:06:35;;;;;;;15.43;11.40;;;;;;;;;;5030924;28;20021;-61
2022/01/24 13:09:04;;;;;;;22.52;12.38;;;;;;;;;;5030017;28;20132;-60
2022/01/24 13:11:31;;;;;;;12.52;10.02;;;;;;;;;;5028413;28;20595;-60
2022/01/24 13:14:00;;;;;;;19.58;15.18;;;;;;;;;;5027532;28;20037;-60
2022/01/24 13:22:20;;;;;;;11.02;9.05;;;;;;;;;;5029867;28;20122;-60
2022/01/24 13:25:05;;;;;;;11.20;9.88;;;;;;;;;;5026383;28;20064;-61
2022/01/24 13:27:34;;;;;;;10.27;9.20;;;;;;;;;;5031686;28;20112;-60
2022/01/24 13:30:00;;;;;;;11.23;9.77;;;;;;;;;;5030388;28;20144;-60
2022/01/24 13:32:42;;;;;;;12.90;10.75;;;;;;;;;;5029320;28;20605;-60
2022/01/24 13:35:12;;;;;;;13.23;10.38;;;;;;;;;;5026522;28;20040;-60
2022/01/24 13:37:40;;;;;;;10.02;8.98;;;;;;;;;;5028990;28;20052;-60
2022/01/24 13:40:06;;;;;;;10.73;8.38;;;;;;;;;;5028249;28;20481;-59
2022/01/24 13:42:35;;;;;;;14.68;8.38;;;;;;;;;;5027878;28;20103;-60
2022/01/24 13:45:01;;;;;;;9.63;8.30;;;;;;;;;;5027677;28;20100;-61
2022/01/24 13:47:27;;;;;;;10.02;8.27;;;;;;;;;;5027273;28;20120;-61
2022/01/24 13:49:53;;;;;;;10.77;8.63;;;;;;;;;;5029400;28;21041;-61
2022/01/24 13:52:19;;;;;;;12.02;9.98;;;;;;;;;;5023071;28;20033;-60
2022/01/24 13:54:45;;;;;;;12.20;9.10;;;;;;;;;;5025392;28;20083;-60
2022/01/24 13:57:17;;;;;;;10.43;8.73;;;;;;;;;;5028053;28;20476;-60
2022/01/24 13:59:43;;;;;;;10.15;9.15;;;;;;;;;;5026272;28;20075;-60
2022/01/24 14:02:22;;;;;;;13.13;8.60;;;;;;;;;;5027890;28;20619;-60
2022/01/24 14:04:49;;;;;;;14.38;8.23;;;;;;;;;;5026010;28;20380;-60
2022/01/24 14:07:22;;;;;;;11.23;7.82;;;;;;;;;;5028742;28;20045;-60
2022/01/24 14:09:57;;;;;;;14.88;8.07;;;;;;;;;;5026287;28;20033;-61
2022/01/24 14:12:32;;;;;;;10.85;7.88;;;;;;;;;;5028769;28;20472;-60
2022/01/24 14:15:03;;;;;;;9.20;7.68;;;;;;;;;;5027661;28;20075;-60
2022/01/24 14:20:19;;;;;;;10.73;7.40;;;;;;;;;;5027117;28;20036;-60
2022/01/24 14:22:51;;;;;;;10.70;6.78;;;;;;;;;;5029871;28;20600;-60
2022/01/24 14:25:25;;;;;;;11.05;6.85;;;;;;;;;;5029424;28;20037;-60
2022/01/24 14:27:52;;;;;;;8.75;7.18;;;;;;;;;;5027861;28;20068;-60
2022/01/24 14:30:21;;;;;;;8.15;6.90;;;;;;;;;;5025956;28;20482;-61
2022/01/24 14:33:04;;;;;;;9.25;7.05;;;;;;;;;;5028383;28;20229;-60
2022/01/24 14:35:32;;;;;;;;;;;;;;;;;;5028017;28;20040;-61
2022/01/24 14:37:59;;;;;;;10.07;7.05;;;;;;;;;;5029070;28;20342;-60
2022/01/24 14:40:47;;;;;;;9.25;7.15;;;;;;;;;;5027834;28;20056;-60
2022/01/24 14:45:59;;;;;;;8.45;7.00;;;;;;;;;;5027098;28;20037;-61
2022/01/24 14:48:25;;;;;;;10.93;7.50;;;;;;;;;;5029105;28;20060;-61
2022/01/24 14:50:51;;;;;;;10.90;9.35;;;;;;;;;;5024670;28;20493;-60
2022/01/24 14:53:17;;;;;;;17.67;12.05;;;;;;;;;;5029301;28;20029;-60
2022/01/24 14:55:43;;;;;;;11.05;9.95;;;;;;;;;;5033028;28;20033;-60
2022/01/24 14:58:09;;;;;;;8.48;6.97;;;;;;;;;;5032548;28;20580;-60
2022/01/24 15:00:36;;;;;;;10.38;7.93;;;;;;;;;;5030419;28;20441;-60
2022/01/24 15:03:01;;;;;;;9.75;7.40;;;;;;;;;;5030915;28;20032;-60
2022/01/24 15:05:27;;;;;;;8.52;6.80;;;;;;;;;;5034789;28;20025;-60
2022/01/24 15:07:53;;;;;;;10.32;6.30;;;;;;;;;;5032257;28;20036;-60
2022/01/24 15:10:19;;;;;;;7.95;6.47;;;;;;;;;;5029806;28;20233;-61
2022/01/24 15:12:51;;;;;;;8.20;6.70;;;;;;;;;;5031719;28;20552;-60
2022/01/24 15:15:18;;;;;;;10.18;6.53;;;;;;;;;;5035205;28;20495;-60
2022/01/24 15:25:51;;;;;;;11.63;6.50;;;;;;;;;;5032711;28;20098;-60
2022/01/24 15:28:18;;;;;;;10.80;7.15;;;;;;;;;;5032954;28;20687;-60
2022/01/24 15:30:44;;;;;;;9.00;6.50;;;;;;;;;;5031582;28;20079;-60
2022/01/24 15:33:10;;;;;;;12.25;6.95;;;;;;;;;;5029088;28;20025;-60
2022/01/24 15:35:36;;;;;;;8.15;6.78;;;;;;;;;;5031032;28;20032;-60
2022/01/24 15:38:06;;;;;;;10.48;7.00;;;;;;;;;;5029503;28;20029;-60
2022/01/24 15:40:34;;;;;;;9.57;7.88;;;;;;;;;;5029351;28;20026;-60
2022/01/24 15:43:13;;;;;;;8.73;7.15;;;;;;;;;;5029572;28;20025;-60
2022/01/24 15:45:45;;;;;;;10.48;6.47;;;;;;;;;;5031465;28;20025;-60
2022/01/24 15:48:11;;;;;;;12.40;6.88;;;;;;;;;;5030582;28;20040;-60
2022/01/24 15:50:38;;;;;;;9.85;6.03;;;;;;;;;;5028111;28;20037;-60
2022/01/24 15:53:05;;;;;;;7.75;6.00;;;;;;;;;;5028407;28;20094;-60
2022/01/24 15:55:32;;;;;;;9.80;6.90;;;;;;;;;;5032514;28;20108;-60
2022/01/24 15:57:59;;;;;;;9.75;6.82;;;;;;;;;;5028748;28;20535;-60
2022/01/24 16:00:32;;;;;;;8.65;6.32;;;;;;;;;;5029805;28;20154;-61
2022/01/24 16:02:58;;;;;;;;;;;;;;;;;;5033719;28;20026;-60
2022/01/24 16:05:25;;;;;;;6.40;5.53;;;;;;;;;;5032304;28;19913;-59
2022/01/24 16:07:53;;;;;;;6.13;5.32;;;;;;;;;;5027881;28;20041;-60
2022/01/24 16:10:21;;;;;;;7.40;5.70;;;;;;;;;;5028326;28;20497;-60
2022/01/24 16:12:48;;;;;;;8.18;5.80;;;;;;;;;;5028176;28;20052;-60
2022/01/24 16:15:16;;;;;;;10.18;6.53;;;;;;;;;;5030065;28;20033;-60
2022/01/24 16:17:42;;;;;;;11.55;6.88;;;;;;;;;;5028663;28;20466;-60
2022/01/24 16:20:21;;;;;;;8.75;6.10;;;;;;;;;;5029864;28;20029;-60
2022/01/24 16:25:37;;;;;;;7.38;5.97;;;;;;;;;;5030202;28;20044;-60
2022/01/24 16:28:04;;;;;;;7.00;6.25;;;;;;;;;;5029240;28;20053;-59
2022/01/24 16:30:31;;;;;;;8.00;6.07;;;;;;;;;;5028572;28;20510;-59
2022/01/24 16:32:58;;;;;;;9.88;7.22;;;;;;;;;;5028160;28;20052;-59
2022/01/24 16:35:24;;;;;;;10.48;7.18;;;;;;;;;;5030368;28;20029;-59
2022/01/24 16:37:51;;;;;;;10.27;7.25;;;;;;;;;;5032597;28;20053;-60
2022/01/24 16:40:24;;;;;;;9.02;7.03;;;;;;;;;;5029193;28;20025;-61
2022/01/24 16:48:31;;;;;;;8.60;5.90;;;;;;;;;;5037834;28;20494;-60
2022/01/24 16:50:58;;;;;;;11.43;6.72;;;;;;;;;;5033502;28;20037;-60
2022/01/24 16:53:24;;;;;;;7.45;6.38;;;;;;;;;;5028495;28;20480;-59